sensor_id;sensor_type;location;lat;lon;timestamp;P1;durP1;ratioP1;P2;durP2;ratioP2
73693;SDS011;61997;53.974;11.670;2022-12-01T00:01:08;40.30;;;18.67;;
73693;SDS011;61997;53.974;11.670;2022-12-01T00:03:34;37.60;;;18.00;;
73693;SDS011;61997;53.974;11.670;2022-12-01T00:06:00;37.85;;;18.27;;
73693;SDS011;61997;53.974;11.670;2022-12-01T00:08:30;37.85;;;18.77;;
73693;SDS011;61997;53.974;11.670;2022-12-01T00:11:02;36.97;;;18.92;;
73693;SDS011;61997;53.974;11.670;2022-12-01T00:13:31;35.35;;;18.10;;
73693;SDS011;61997;53.974;11.670;2022-12-01T00:16:08;35.83;;;17.65;;
73693;SDS011;61997;53.974;11.670;2022-12-01T00:18:36;37.20;;;18.52;;
73693;SDS011;61997;53.974;11.670;2022-12-01T00:21:01;34.50;;;18.17;;
73693;SDS011;61997;53.974;11.670;2022-12-01T00:23:27;32.17;;;17.23;;
73693;SDS011;61997;53.974;11.670;2022-12-01T00:25:52;34.10;;;17.13;;
73693;SDS011;61997;53.974;11.670;2022-12-01T00:28:19;38.28;;;18.13;;
73693;SDS011;61997;53.974;11.670;2022-12-01T00:30:46;35.78;;;17.60;;
73693;SDS011;61997;53.974;11.670;2022-12-01T00:33:13;36.92;;;17.38;;
73693;SDS011;61997;53.974;11.670;2022-12-01T00:35:40;41.60;;;17.98;;
73693;SDS011;61997;53.974;11.670;2022-12-01T00:38:06;40.45;;;19.90;;
73693;SDS011;61997;53.974;11.670;2022-12-01T00:40:35;39.28;;;18.13;;
73693;SDS011;61997;53.974;11.670;2022-12-01T00:43:01;40.05;;;19.33;;
73693;SDS011;61997;53.974;11.670;2022-12-01T00:45:27;35.30;;;17.65;;
73693;SDS011;61997;53.974;11.670;2022-12-01T00:47:53;37.05;;;18.45;;
73693;SDS011;61997;53.974;11.670;2022-12-01T00:50:24;39.72;;;21.23;;
73693;SDS011;61997;53.974;11.670;2022-12-01T00:52:49;36.35;;;19.52;;
73693;SDS011;61997;53.974;11.670;2022-12-01T00:55:15;35.75;;;17.92;;
73693;SDS011;61997;53.974;11.670;2022-12-01T00:57:40;36.17;;;19.48;;
73693;SDS011;61997;53.974;11.670;2022-12-01T01:00:06;37.05;;;18.08;;
73693;SDS011;61997;53.974;11.670;2022-12-01T01:02:32;39.60;;;19.27;;
73693;SDS011;61997;53.974;11.670;2022-12-01T01:04:57;44.90;;;19.33;;
73693;SDS011;61997;53.974;11.670;2022-12-01T01:07:23;39.40;;;18.95;;
73693;SDS011;61997;53.974;11.670;2022-12-01T01:09:48;33.00;;;19.02;;
73693;SDS011;61997;53.974;11.670;2022-12-01T01:12:13;36.13;;;17.60;;
73693;SDS011;61997;53.974;11.670;2022-12-01T01:14:39;36.00;;;17.98;;
73693;SDS011;61997;53.974;11.670;2022-12-01T01:17:04;37.63;;;19.15;;
73693;SDS011;61997;53.974;11.670;2022-12-01T01:19:29;41.58;;;20.42;;
73693;SDS011;61997;53.974;11.670;2022-12-01T01:21:55;38.85;;;18.52;;
73693;SDS011;61997;53.974;11.670;2022-12-01T01:24:20;38.45;;;19.30;;
73693;SDS011;61997;53.974;11.670;2022-12-01T01:26:45;40.72;;;19.65;;
73693;SDS011;61997;53.974;11.670;2022-12-01T01:29:11;33.35;;;17.70;;
73693;SDS011;61997;53.974;11.670;2022-12-01T01:31:36;37.22;;;17.98;;
73693;SDS011;61997;53.974;11.670;2022-12-01T01:34:07;39.40;;;18.70;;
73693;SDS011;61997;53.974;11.670;2022-12-01T01:36:32;37.42;;;18.30;;
73693;SDS011;61997;53.974;11.670;2022-12-01T01:38:59;35.42;;;18.50;;
73693;SDS011;61997;53.974;11.670;2022-12-01T01:41:24;34.63;;;17.33;;
73693;SDS011;61997;53.974;11.670;2022-12-01T01:46:19;36.42;;;18.48;;
73693;SDS011;61997;53.974;11.670;2022-12-01T01:48:49;37.03;;;17.50;;
73693;SDS011;61997;53.974;11.670;2022-12-01T01:51:18;40.30;;;19.13;;
73693;SDS011;61997;53.974;11.670;2022-12-01T01:53:47;37.10;;;18.10;;
73693;SDS011;61997;53.974;11.670;2022-12-01T01:56:13;34.47;;;17.77;;
73693;SDS011;61997;53.974;11.670;2022-12-01T01:58:39;36.42;;;17.50;;
73693;SDS011;61997;53.974;11.670;2022-12-01T02:01:05;40.35;;;17.90;;
73693;SDS011;61997;53.974;11.670;2022-12-01T02:03:31;33.55;;;16.98;;
73693;SDS011;61997;53.974;11.670;2022-12-01T02:05:56;30.58;;;14.88;;
73693;SDS011;61997;53.974;11.670;2022-12-01T02:08:22;31.35;;;15.70;;
73693;SDS011;61997;53.974;11.670;2022-12-01T02:13:41;33.50;;;15.88;;
73693;SDS011;61997;53.974;11.670;2022-12-01T02:19:12;37.72;;;16.17;;
73693;SDS011;61997;53.974;11.670;2022-12-01T02:27:48;33.45;;;16.15;;
73693;SDS011;61997;53.974;11.670;2022-12-01T02:30:30;32.22;;;16.35;;
73693;SDS011;61997;53.974;11.670;2022-12-01T02:35:48;32.28;;;15.77;;
73693;SDS011;61997;53.974;11.670;2022-12-01T02:38:37;30.63;;;15.05;;
73693;SDS011;61997;53.974;11.670;2022-12-01T02:43:38;32.42;;;16.63;;
73693;SDS011;61997;53.974;11.670;2022-12-01T02:46:07;37.40;;;16.98;;
73693;SDS011;61997;53.974;11.670;2022-12-01T02:48:56;32.83;;;15.88;;
73693;SDS011;61997;53.974;11.670;2022-12-01T02:51:24;31.67;;;14.95;;
73693;SDS011;61997;53.974;11.670;2022-12-01T02:53:54;32.35;;;14.13;;
73693;SDS011;61997;53.974;11.670;2022-12-01T02:56:21;34.97;;;15.52;;
73693;SDS011;61997;53.974;11.670;2022-12-01T02:58:47;30.85;;;15.52;;
73693;SDS011;61997;53.974;11.670;2022-12-01T03:09:45;32.78;;;14.80;;
73693;SDS011;61997;53.974;11.670;2022-12-01T03:18:24;32.78;;;14.65;;
73693;SDS011;61997;53.974;11.670;2022-12-01T03:23:25;29.63;;;14.48;;
73693;SDS011;61997;53.974;11.670;2022-12-01T03:25:53;26.15;;;13.45;;
73693;SDS011;61997;53.974;11.670;2022-12-01T03:28:21;30.45;;;14.00;;
73693;SDS011;61997;53.974;11.670;2022-12-01T03:30:52;32.03;;;14.32;;
73693;SDS011;61997;53.974;11.670;2022-12-01T03:33:21;25.20;;;13.18;;
73693;SDS011;61997;53.974;11.670;2022-12-01T03:35:56;27.63;;;13.77;;
73693;SDS011;61997;53.974;11.670;2022-12-01T03:38:31;31.23;;;13.32;;
73693;SDS011;61997;53.974;11.670;2022-12-01T03:40:58;30.15;;;13.95;;
73693;SDS011;61997;53.974;11.670;2022-12-01T03:43:30;28.60;;;13.77;;
73693;SDS011;61997;53.974;11.670;2022-12-01T03:48:31;28.30;;;12.52;;
73693;SDS011;61997;53.974;11.670;2022-12-01T03:56:29;29.80;;;14.88;;
73693;SDS011;61997;53.974;11.670;2022-12-01T03:58:58;29.13;;;13.82;;
73693;SDS011;61997;53.974;11.670;2022-12-01T04:01:28;23.98;;;12.30;;
73693;SDS011;61997;53.974;11.670;2022-12-01T04:03:59;29.80;;;12.75;;
73693;SDS011;61997;53.974;11.670;2022-12-01T04:06:28;26.48;;;12.20;;
73693;SDS011;61997;53.974;11.670;2022-12-01T04:08:53;26.85;;;12.23;;
73693;SDS011;61997;53.974;11.670;2022-12-01T04:11:19;24.73;;;11.73;;
73693;SDS011;61997;53.974;11.670;2022-12-01T04:14:02;27.85;;;13.82;;
73693;SDS011;61997;53.974;11.670;2022-12-01T04:16:28;24.63;;;12.82;;
73693;SDS011;61997;53.974;11.670;2022-12-01T04:18:53;28.15;;;12.85;;
73693;SDS011;61997;53.974;11.670;2022-12-01T04:21:18;25.10;;;12.05;;
73693;SDS011;61997;53.974;11.670;2022-12-01T04:23:44;28.55;;;12.93;;
73693;SDS011;61997;53.974;11.670;2022-12-01T04:26:25;26.45;;;12.15;;
73693;SDS011;61997;53.974;11.670;2022-12-01T04:28:51;29.85;;;13.55;;
73693;SDS011;61997;53.974;11.670;2022-12-01T04:31:16;29.88;;;13.88;;
73693;SDS011;61997;53.974;11.670;2022-12-01T04:33:41;24.77;;;11.48;;
73693;SDS011;61997;53.974;11.670;2022-12-01T04:36:07;25.13;;;11.60;;
73693;SDS011;61997;53.974;11.670;2022-12-01T04:38:33;23.92;;;11.27;;
73693;SDS011;61997;53.974;11.670;2022-12-01T04:41:01;27.42;;;12.65;;
73693;SDS011;61997;53.974;11.670;2022-12-01T04:43:31;30.35;;;12.68;;
73693;SDS011;61997;53.974;11.670;2022-12-01T04:45:57;23.70;;;11.88;;
73693;SDS011;61997;53.974;11.670;2022-12-01T04:48:22;24.92;;;11.32;;
73693;SDS011;61997;53.974;11.670;2022-12-01T04:50:48;26.10;;;11.52;;
73693;SDS011;61997;53.974;11.670;2022-12-01T04:53:13;27.58;;;12.68;;
73693;SDS011;61997;53.974;11.670;2022-12-01T04:55:38;24.50;;;12.27;;
73693;SDS011;61997;53.974;11.670;2022-12-01T04:58:04;24.83;;;12.18;;
73693;SDS011;61997;53.974;11.670;2022-12-01T05:00:30;25.35;;;11.75;;
73693;SDS011;61997;53.974;11.670;2022-12-01T05:02:56;25.73;;;11.55;;
73693;SDS011;61997;53.974;11.670;2022-12-01T05:05:21;27.50;;;12.48;;
73693;SDS011;61997;53.974;11.670;2022-12-01T05:07:47;26.77;;;12.32;;
73693;SDS011;61997;53.974;11.670;2022-12-01T05:10:12;28.55;;;11.95;;
73693;SDS011;61997;53.974;11.670;2022-12-01T05:12:38;28.38;;;11.75;;
73693;SDS011;61997;53.974;11.670;2022-12-01T05:15:05;31.77;;;12.02;;
73693;SDS011;61997;53.974;11.670;2022-12-01T05:17:31;25.10;;;11.18;;
73693;SDS011;61997;53.974;11.670;2022-12-01T05:19:57;27.30;;;10.68;;
73693;SDS011;61997;53.974;11.670;2022-12-01T05:22:41;24.83;;;11.05;;
73693;SDS011;61997;53.974;11.670;2022-12-01T05:25:06;28.02;;;11.98;;
73693;SDS011;61997;53.974;11.670;2022-12-01T05:27:32;25.77;;;10.40;;
73693;SDS011;61997;53.974;11.670;2022-12-01T05:29:57;26.58;;;11.60;;
73693;SDS011;61997;53.974;11.670;2022-12-01T05:32:22;28.27;;;12.43;;
73693;SDS011;61997;53.974;11.670;2022-12-01T05:34:48;28.25;;;11.32;;
73693;SDS011;61997;53.974;11.670;2022-12-01T05:37:13;25.55;;;11.63;;
73693;SDS011;61997;53.974;11.670;2022-12-01T05:39:38;25.23;;;10.68;;
73693;SDS011;61997;53.974;11.670;2022-12-01T05:42:04;29.13;;;11.15;;
73693;SDS011;61997;53.974;11.670;2022-12-01T05:44:29;24.17;;;10.52;;
73693;SDS011;61997;53.974;11.670;2022-12-01T05:46:55;23.65;;;10.90;;
73693;SDS011;61997;53.974;11.670;2022-12-01T05:49:20;24.65;;;10.65;;
73693;SDS011;61997;53.974;11.670;2022-12-01T05:51:46;28.17;;;11.18;;
73693;SDS011;61997;53.974;11.670;2022-12-01T05:54:11;29.65;;;11.25;;
73693;SDS011;61997;53.974;11.670;2022-12-01T05:56:36;24.17;;;10.95;;
73693;SDS011;61997;53.974;11.670;2022-12-01T05:59:02;24.50;;;10.93;;
73693;SDS011;61997;53.974;11.670;2022-12-01T06:01:27;28.38;;;10.75;;
73693;SDS011;61997;53.974;11.670;2022-12-01T06:03:53;24.15;;;9.85;;
73693;SDS011;61997;53.974;11.670;2022-12-01T06:06:18;26.70;;;11.13;;
73693;SDS011;61997;53.974;11.670;2022-12-01T06:08:44;26.75;;;9.65;;
73693;SDS011;61997;53.974;11.670;2022-12-01T06:11:09;24.48;;;10.27;;
73693;SDS011;61997;53.974;11.670;2022-12-01T06:13:35;21.85;;;10.65;;
73693;SDS011;61997;53.974;11.670;2022-12-01T06:16:01;25.85;;;10.15;;
73693;SDS011;61997;53.974;11.670;2022-12-01T06:18:32;25.52;;;11.23;;
73693;SDS011;61997;53.974;11.670;2022-12-01T06:20:59;25.40;;;11.88;;
73693;SDS011;61997;53.974;11.670;2022-12-01T06:23:24;24.60;;;9.95;;
73693;SDS011;61997;53.974;11.670;2022-12-01T06:25:50;21.90;;;9.20;;
73693;SDS011;61997;53.974;11.670;2022-12-01T06:28:15;24.08;;;10.00;;
73693;SDS011;61997;53.974;11.670;2022-12-01T06:30:41;22.98;;;10.52;;
73693;SDS011;61997;53.974;11.670;2022-12-01T06:33:06;21.63;;;9.52;;
73693;SDS011;61997;53.974;11.670;2022-12-01T06:35:32;22.75;;;9.68;;
73693;SDS011;61997;53.974;11.670;2022-12-01T06:37:57;25.27;;;10.20;;
73693;SDS011;61997;53.974;11.670;2022-12-01T06:40:23;22.25;;;9.55;;
73693;SDS011;61997;53.974;11.670;2022-12-01T06:42:48;20.05;;;9.00;;
73693;SDS011;61997;53.974;11.670;2022-12-01T06:45:13;24.17;;;10.52;;
73693;SDS011;61997;53.974;11.670;2022-12-01T06:47:39;22.85;;;8.93;;
73693;SDS011;61997;53.974;11.670;2022-12-01T06:50:05;26.05;;;9.68;;
73693;SDS011;61997;53.974;11.670;2022-12-01T06:52:35;22.52;;;10.32;;
73693;SDS011;61997;53.974;11.670;2022-12-01T06:55:02;26.02;;;11.15;;
73693;SDS011;61997;53.974;11.670;2022-12-01T06:57:30;20.50;;;8.52;;
73693;SDS011;61997;53.974;11.670;2022-12-01T06:59:59;24.02;;;8.90;;
73693;SDS011;61997;53.974;11.670;2022-12-01T07:02:28;21.70;;;9.68;;
73693;SDS011;61997;53.974;11.670;2022-12-01T07:04:55;23.02;;;8.85;;
73693;SDS011;61997;53.974;11.670;2022-12-01T07:07:21;22.63;;;9.40;;
73693;SDS011;61997;53.974;11.670;2022-12-01T07:09:48;22.83;;;9.63;;
73693;SDS011;61997;53.974;11.670;2022-12-01T07:12:14;24.63;;;9.38;;
73693;SDS011;61997;53.974;11.670;2022-12-01T07:14:39;20.17;;;8.98;;
73693;SDS011;61997;53.974;11.670;2022-12-01T07:17:06;19.67;;;8.50;;
73693;SDS011;61997;53.974;11.670;2022-12-01T07:19:32;21.50;;;9.10;;
73693;SDS011;61997;53.974;11.670;2022-12-01T07:21:57;21.98;;;9.23;;
73693;SDS011;61997;53.974;11.670;2022-12-01T07:24:22;22.85;;;9.25;;
73693;SDS011;61997;53.974;11.670;2022-12-01T07:26:48;20.80;;;9.13;;
73693;SDS011;61997;53.974;11.670;2022-12-01T07:29:13;22.45;;;8.70;;
73693;SDS011;61997;53.974;11.670;2022-12-01T07:31:39;22.35;;;8.90;;
73693;SDS011;61997;53.974;11.670;2022-12-01T07:34:04;20.98;;;8.25;;
73693;SDS011;61997;53.974;11.670;2022-12-01T07:36:30;20.15;;;8.70;;
73693;SDS011;61997;53.974;11.670;2022-12-01T07:38:55;21.95;;;8.52;;
73693;SDS011;61997;53.974;11.670;2022-12-01T07:41:21;24.13;;;10.13;;
73693;SDS011;61997;53.974;11.670;2022-12-01T07:43:46;23.65;;;9.48;;
73693;SDS011;61997;53.974;11.670;2022-12-01T07:48:39;23.42;;;9.10;;
73693;SDS011;61997;53.974;11.670;2022-12-01T07:51:09;23.17;;;9.63;;
73693;SDS011;61997;53.974;11.670;2022-12-01T07:53:35;21.58;;;10.20;;
73693;SDS011;61997;53.974;11.670;2022-12-01T07:56:01;20.23;;;8.32;;
73693;SDS011;61997;53.974;11.670;2022-12-01T07:58:28;19.60;;;8.73;;
73693;SDS011;61997;53.974;11.670;2022-12-01T08:00:54;19.48;;;9.32;;
73693;SDS011;61997;53.974;11.670;2022-12-01T08:03:19;22.05;;;9.60;;
73693;SDS011;61997;53.974;11.670;2022-12-01T08:05:45;20.60;;;9.18;;
73693;SDS011;61997;53.974;11.670;2022-12-01T08:08:19;21.30;;;7.65;;
73693;SDS011;61997;53.974;11.670;2022-12-01T08:10:44;23.75;;;8.95;;
73693;SDS011;61997;53.974;11.670;2022-12-01T08:13:09;20.88;;;9.00;;
73693;SDS011;61997;53.974;11.670;2022-12-01T08:15:35;22.33;;;9.05;;
73693;SDS011;61997;53.974;11.670;2022-12-01T08:18:00;18.73;;;7.90;;
73693;SDS011;61997;53.974;11.670;2022-12-01T08:20:26;25.13;;;9.05;;
73693;SDS011;61997;53.974;11.670;2022-12-01T08:22:51;18.60;;;8.02;;
73693;SDS011;61997;53.974;11.670;2022-12-01T08:25:17;19.52;;;8.63;;
73693;SDS011;61997;53.974;11.670;2022-12-01T08:27:42;21.35;;;8.90;;
73693;SDS011;61997;53.974;11.670;2022-12-01T08:30:08;18.98;;;8.50;;
73693;SDS011;61997;53.974;11.670;2022-12-01T08:32:39;20.33;;;8.80;;
73693;SDS011;61997;53.974;11.670;2022-12-01T08:35:20;17.65;;;8.43;;
73693;SDS011;61997;53.974;11.670;2022-12-01T08:37:51;22.67;;;9.55;;
73693;SDS011;61997;53.974;11.670;2022-12-01T08:40:17;20.75;;;8.80;;
73693;SDS011;61997;53.974;11.670;2022-12-01T08:42:43;18.73;;;7.63;;
73693;SDS011;61997;53.974;11.670;2022-12-01T08:45:21;22.42;;;8.48;;
73693;SDS011;61997;53.974;11.670;2022-12-01T08:47:53;20.70;;;8.55;;
73693;SDS011;61997;53.974;11.670;2022-12-01T08:50:31;20.10;;;8.60;;
73693;SDS011;61997;53.974;11.670;2022-12-01T08:53:03;18.50;;;8.27;;
73693;SDS011;61997;53.974;11.670;2022-12-01T08:55:34;18.58;;;8.25;;
73693;SDS011;61997;53.974;11.670;2022-12-01T09:01:04;22.90;;;8.52;;
73693;SDS011;61997;53.974;11.670;2022-12-01T09:03:34;23.45;;;9.05;;
73693;SDS011;61997;53.974;11.670;2022-12-01T09:06:04;22.98;;;9.68;;
73693;SDS011;61997;53.974;11.670;2022-12-01T09:15:53;19.58;;;8.40;;
73693;SDS011;61997;53.974;11.670;2022-12-01T09:18:19;21.20;;;8.98;;
73693;SDS011;61997;53.974;11.670;2022-12-01T09:21:18;20.90;;;8.25;;
73693;SDS011;61997;53.974;11.670;2022-12-01T09:23:40;18.13;;;8.02;;
73693;SDS011;61997;53.974;11.670;2022-12-01T09:26:21;18.92;;;7.47;;
73693;SDS011;61997;53.974;11.670;2022-12-01T09:31:32;22.75;;;8.40;;
73693;SDS011;61997;53.974;11.670;2022-12-01T09:34:06;17.65;;;8.77;;
73693;SDS011;61997;53.974;11.670;2022-12-01T09:36:32;17.10;;;7.97;;
73693;SDS011;61997;53.974;11.670;2022-12-01T09:39:00;19.02;;;8.45;;
73693;SDS011;61997;53.974;11.670;2022-12-01T09:41:52;22.10;;;8.45;;
73693;SDS011;61997;53.974;11.670;2022-12-01T09:44:34;20.80;;;8.77;;
73693;SDS011;61997;53.974;11.670;2022-12-01T09:52:46;16.17;;;7.53;;
73693;SDS011;61997;53.974;11.670;2022-12-01T09:55:16;18.38;;;8.38;;
73693;SDS011;61997;53.974;11.670;2022-12-01T09:58:03;20.42;;;8.38;;
73693;SDS011;61997;53.974;11.670;2022-12-01T10:00:39;24.27;;;8.73;;
73693;SDS011;61997;53.974;11.670;2022-12-01T10:06:02;18.10;;;7.97;;
73693;SDS011;61997;53.974;11.670;2022-12-01T10:08:34;23.92;;;10.35;;
73693;SDS011;61997;53.974;11.670;2022-12-01T10:17:15;18.33;;;7.55;;
73693;SDS011;61997;53.974;11.670;2022-12-01T10:28:52;19.48;;;8.35;;
73693;SDS011;61997;53.974;11.670;2022-12-01T10:38:02;20.90;;;8.50;;
73693;SDS011;61997;53.974;11.670;2022-12-01T10:40:30;24.70;;;9.70;;
73693;SDS011;61997;53.974;11.670;2022-12-01T10:49:40;20.67;;;9.60;;
73693;SDS011;61997;53.974;11.670;2022-12-01T11:07:45;23.77;;;10.02;;
73693;SDS011;61997;53.974;11.670;2022-12-01T11:19:54;26.00;;;9.75;;
73693;SDS011;61997;53.974;11.670;2022-12-01T11:22:24;25.80;;;11.80;;
73693;SDS011;61997;53.974;11.670;2022-12-01T11:25:01;25.50;;;10.45;;
73693;SDS011;61997;53.974;11.670;2022-12-01T11:27:30;26.92;;;12.52;;
73693;SDS011;61997;53.974;11.670;2022-12-01T11:30:27;29.20;;;12.65;;
73693;SDS011;61997;53.974;11.670;2022-12-01T11:33:03;27.98;;;11.70;;
73693;SDS011;61997;53.974;11.670;2022-12-01T11:35:29;25.40;;;12.82;;
73693;SDS011;61997;53.974;11.670;2022-12-01T11:37:57;28.23;;;12.35;;
73693;SDS011;61997;53.974;11.670;2022-12-01T11:40:24;35.50;;;14.10;;
73693;SDS011;61997;53.974;11.670;2022-12-01T11:42:52;29.55;;;12.48;;
73693;SDS011;61997;53.974;11.670;2022-12-01T11:45:25;29.42;;;13.93;;
73693;SDS011;61997;53.974;11.670;2022-12-01T11:50:40;29.48;;;15.52;;
73693;SDS011;61997;53.974;11.670;2022-12-01T11:58:55;31.13;;;14.63;;
73693;SDS011;61997;53.974;11.670;2022-12-01T12:07:15;39.33;;;16.77;;
73693;SDS011;61997;53.974;11.670;2022-12-01T12:17:57;35.45;;;16.95;;
73693;SDS011;61997;53.974;11.670;2022-12-01T12:33:39;40.92;;;17.65;;
73693;SDS011;61997;53.974;11.670;2022-12-01T12:36:31;43.67;;;20.20;;
73693;SDS011;61997;53.974;11.670;2022-12-01T12:39:28;40.60;;;18.92;;
73693;SDS011;61997;53.974;11.670;2022-12-01T12:42:08;48.00;;;20.48;;
73693;SDS011;61997;53.974;11.670;2022-12-01T12:45:08;44.10;;;21.10;;
73693;SDS011;61997;53.974;11.670;2022-12-01T12:51:11;46.15;;;21.20;;
73693;SDS011;61997;53.974;11.670;2022-12-01T12:56:44;40.72;;;19.75;;
73693;SDS011;61997;53.974;11.670;2022-12-01T12:59:22;36.28;;;18.83;;
73693;SDS011;61997;53.974;11.670;2022-12-01T13:15:51;51.28;;;21.13;;
73693;SDS011;61997;53.974;11.670;2022-12-01T13:18:32;42.38;;;20.30;;
73693;SDS011;61997;53.974;11.670;2022-12-01T13:21:01;49.58;;;21.35;;
73693;SDS011;61997;53.974;11.670;2022-12-01T13:23:27;47.42;;;21.08;;
73693;SDS011;61997;53.974;11.670;2022-12-01T13:25:53;39.08;;;19.80;;
73693;SDS011;61997;53.974;11.670;2022-12-01T13:28:22;44.20;;;20.00;;
73693;SDS011;61997;53.974;11.670;2022-12-01T13:30:56;42.15;;;20.92;;
73693;SDS011;61997;53.974;11.670;2022-12-01T13:33:26;45.72;;;21.30;;
73693;SDS011;61997;53.974;11.670;2022-12-01T13:35:52;40.35;;;20.48;;
73693;SDS011;61997;53.974;11.670;2022-12-01T13:40:45;44.10;;;20.05;;
73693;SDS011;61997;53.974;11.670;2022-12-01T13:43:15;45.28;;;21.30;;
73693;SDS011;61997;53.974;11.670;2022-12-01T13:45:43;43.15;;;21.27;;
73693;SDS011;61997;53.974;11.670;2022-12-01T13:51:12;43.88;;;20.30;;
73693;SDS011;61997;53.974;11.670;2022-12-01T13:53:37;43.72;;;20.83;;
73693;SDS011;61997;53.974;11.670;2022-12-01T13:58:51;46.53;;;20.63;;
73693;SDS011;61997;53.974;11.670;2022-12-01T14:03:59;43.13;;;20.25;;
73693;SDS011;61997;53.974;11.670;2022-12-01T14:06:46;45.58;;;19.00;;
73693;SDS011;61997;53.974;11.670;2022-12-01T14:09:25;43.67;;;20.10;;
73693;SDS011;61997;53.974;11.670;2022-12-01T14:11:57;46.15;;;18.80;;
73693;SDS011;61997;53.974;11.670;2022-12-01T14:14:25;43.88;;;20.58;;
73693;SDS011;61997;53.974;11.670;2022-12-01T14:16:53;40.28;;;20.48;;
73693;SDS011;61997;53.974;11.670;2022-12-01T14:19:35;43.67;;;18.55;;
73693;SDS011;61997;53.974;11.670;2022-12-01T14:22:04;40.42;;;19.40;;
73693;SDS011;61997;53.974;11.670;2022-12-01T14:24:32;39.20;;;18.98;;
73693;SDS011;61997;53.974;11.670;2022-12-01T14:26:59;38.75;;;18.13;;
73693;SDS011;61997;53.974;11.670;2022-12-01T14:29:36;41.60;;;18.80;;
73693;SDS011;61997;53.974;11.670;2022-12-01T14:34:34;36.90;;;17.45;;
73693;SDS011;61997;53.974;11.670;2022-12-01T14:37:05;40.05;;;17.63;;
73693;SDS011;61997;53.974;11.670;2022-12-01T14:42:40;37.67;;;16.85;;
73693;SDS011;61997;53.974;11.670;2022-12-01T14:45:29;35.28;;;16.73;;
73693;SDS011;61997;53.974;11.670;2022-12-01T14:48:02;39.00;;;16.90;;
73693;SDS011;61997;53.974;11.670;2022-12-01T14:53:29;40.97;;;16.92;;
73693;SDS011;61997;53.974;11.670;2022-12-01T14:56:16;34.88;;;17.95;;
73693;SDS011;61997;53.974;11.670;2022-12-01T15:01:42;32.08;;;16.17;;
73693;SDS011;61997;53.974;11.670;2022-12-01T15:04:09;38.75;;;16.50;;
73693;SDS011;61997;53.974;11.670;2022-12-01T15:06:34;39.05;;;16.80;;
73693;SDS011;61997;53.974;11.670;2022-12-01T15:09:12;31.80;;;15.43;;
73693;SDS011;61997;53.974;11.670;2022-12-01T15:11:53;36.75;;;16.10;;
73693;SDS011;61997;53.974;11.670;2022-12-01T15:14:32;34.85;;;16.08;;
73693;SDS011;61997;53.974;11.670;2022-12-01T15:17:03;37.55;;;16.65;;
73693;SDS011;61997;53.974;11.670;2022-12-01T15:19:30;31.83;;;15.27;;
73693;SDS011;61997;53.974;11.670;2022-12-01T15:22:02;35.63;;;15.70;;
73693;SDS011;61997;53.974;11.670;2022-12-01T15:24:29;34.15;;;16.05;;
73693;SDS011;61997;53.974;11.670;2022-12-01T15:26:56;35.42;;;15.85;;
73693;SDS011;61997;53.974;11.670;2022-12-01T15:29:26;37.58;;;17.15;;
73693;SDS011;61997;53.974;11.670;2022-12-01T15:31:57;32.60;;;15.82;;
73693;SDS011;61997;53.974;11.670;2022-12-01T15:34:28;32.97;;;15.52;;
73693;SDS011;61997;53.974;11.670;2022-12-01T15:36:54;30.63;;;15.13;;
73693;SDS011;61997;53.974;11.670;2022-12-01T15:39:25;34.38;;;15.50;;
73693;SDS011;61997;53.974;11.670;2022-12-01T15:41:54;34.42;;;15.10;;
73693;SDS011;61997;53.974;11.670;2022-12-01T15:44:41;31.77;;;15.35;;
73693;SDS011;61997;53.974;11.670;2022-12-01T15:49:54;28.13;;;13.38;;
73693;SDS011;61997;53.974;11.670;2022-12-01T15:52:19;31.77;;;13.65;;
73693;SDS011;61997;53.974;11.670;2022-12-01T15:54:46;28.38;;;13.20;;
73693;SDS011;61997;53.974;11.670;2022-12-01T15:57:14;31.65;;;14.23;;
73693;SDS011;61997;53.974;11.670;2022-12-01T15:59:43;29.92;;;13.48;;
73693;SDS011;61997;53.974;11.670;2022-12-01T16:02:23;31.25;;;14.40;;
73693;SDS011;61997;53.974;11.670;2022-12-01T16:05:29;33.45;;;14.65;;
73693;SDS011;61997;53.974;11.670;2022-12-01T16:07:51;32.45;;;13.27;;
73693;SDS011;61997;53.974;11.670;2022-12-01T16:10:35;31.25;;;13.95;;
73693;SDS011;61997;53.974;11.670;2022-12-01T16:18:53;32.33;;;14.73;;
73693;SDS011;61997;53.974;11.670;2022-12-01T16:21:23;34.13;;;15.25;;
73693;SDS011;61997;53.974;11.670;2022-12-01T16:23:56;38.03;;;16.70;;
73693;SDS011;61997;53.974;11.670;2022-12-01T16:26:32;33.50;;;16.98;;
73693;SDS011;61997;53.974;11.670;2022-12-01T16:29:48;33.58;;;14.70;;
73693;SDS011;61997;53.974;11.670;2022-12-01T16:32:17;33.65;;;13.70;;
73693;SDS011;61997;53.974;11.670;2022-12-01T16:34:45;32.75;;;15.23;;
73693;SDS011;61997;53.974;11.670;2022-12-01T16:37:13;32.70;;;14.05;;
73693;SDS011;61997;53.974;11.670;2022-12-01T16:39:47;31.83;;;15.23;;
73693;SDS011;61997;53.974;11.670;2022-12-01T16:42:17;36.25;;;15.70;;
73693;SDS011;61997;53.974;11.670;2022-12-01T16:44:51;32.15;;;14.95;;
73693;SDS011;61997;53.974;11.670;2022-12-01T16:47:18;36.58;;;15.70;;
73693;SDS011;61997;53.974;11.670;2022-12-01T16:49:50;31.23;;;16.38;;
73693;SDS011;61997;53.974;11.670;2022-12-01T16:52:16;30.77;;;13.73;;
73693;SDS011;61997;53.974;11.670;2022-12-01T16:54:43;30.65;;;14.95;;
73693;SDS011;61997;53.974;11.670;2022-12-01T16:57:12;30.42;;;14.77;;
73693;SDS011;61997;53.974;11.670;2022-12-01T16:59:38;29.70;;;14.23;;
73693;SDS011;61997;53.974;11.670;2022-12-01T17:02:05;29.95;;;14.02;;
73693;SDS011;61997;53.974;11.670;2022-12-01T17:04:33;31.52;;;14.57;;
73693;SDS011;61997;53.974;11.670;2022-12-01T17:06:59;28.73;;;13.68;;
73693;SDS011;61997;53.974;11.670;2022-12-01T17:09:26;36.00;;;13.48;;
73693;SDS011;61997;53.974;11.670;2022-12-01T17:11:52;30.10;;;13.52;;
73693;SDS011;61997;53.974;11.670;2022-12-01T17:14:24;30.20;;;13.50;;
73693;SDS011;61997;53.974;11.670;2022-12-01T17:16:52;31.55;;;13.80;;
73693;SDS011;61997;53.974;11.670;2022-12-01T17:19:17;27.88;;;13.82;;
73693;SDS011;61997;53.974;11.670;2022-12-01T17:21:44;30.00;;;13.82;;
73693;SDS011;61997;53.974;11.670;2022-12-01T17:24:13;31.10;;;14.60;;
73693;SDS011;61997;53.974;11.670;2022-12-01T17:26:45;29.05;;;12.88;;
73693;SDS011;61997;53.974;11.670;2022-12-01T17:29:20;25.77;;;12.73;;
73693;SDS011;61997;53.974;11.670;2022-12-01T17:31:47;30.42;;;13.30;;
73693;SDS011;61997;53.974;11.670;2022-12-01T17:34:13;33.83;;;13.20;;
73693;SDS011;61997;53.974;11.670;2022-12-01T17:36:38;34.38;;;13.40;;
73693;SDS011;61997;53.974;11.670;2022-12-01T17:39:06;28.40;;;14.05;;
73693;SDS011;61997;53.974;11.670;2022-12-01T17:41:33;27.80;;;12.48;;
73693;SDS011;61997;53.974;11.670;2022-12-01T17:44:03;38.53;;;15.25;;
73693;SDS011;61997;53.974;11.670;2022-12-01T17:46:32;31.30;;;12.77;;
73693;SDS011;61997;53.974;11.670;2022-12-01T17:49:02;27.73;;;12.88;;
73693;SDS011;61997;53.974;11.670;2022-12-01T17:51:36;29.42;;;12.73;;
73693;SDS011;61997;53.974;11.670;2022-12-01T17:54:05;28.67;;;12.13;;